Time;durP1;ratioP1;P1;durP2;ratioP2;P2;SDS_P1;SDS_P2;PMS_P1;PMS_P2;Temp;Humidity;BMP_temperature;BMP_pressure;BME280_temperature;BME280_humidity;BME280_pressure;Samples;Min_cycle;Max_cycle;Signal;HPM_P1;HPM_P2
2022/09/28 00:01:16;;;;;;;6.97;4.03;;;;;;;6.24;100.00;98916.25;1732470;82;24646;-73
2022/09/28 00:03:44;;;;;;;8.03;3.80;;;;;;;6.27;100.00;98917.88;1732118;82;20992;-74
2022/09/28 00:06:15;;;;;;;5.70;3.83;;;;;;;6.28;100.00;98915.19;1727074;82;21066;-73
2022/09/28 00:08:43;;;;;;;5.03;3.70;;;;;;;6.26;100.00;98911.80;1726919;82;21769;-73
2022/09/28 00:11:14;;;;;;;6.27;3.77;;;;;;;6.28;100.00;98909.15;1726418;82;21067;-74
2022/09/28 00:13:42;;;;;;;8.03;3.60;;;;;;;6.27;100.00;98907.01;1726718;83;20997;-74
2022/09/28 00:16:15;;;;;;;5.70;3.50;;;;;;;6.20;100.00;98903.81;1726588;82;21055;-74
2022/09/28 00:18:44;;;;;;;6.43;3.40;;;;;;;6.14;99.62;98898.03;1726688;82;21600;-88
2022/09/28 00:21:17;;;;;;;6.63;3.63;;;;;;;6.08;99.71;98895.70;1726446;83;21128;-86
2022/09/28 00:26:32;;;;;;;7.40;3.70;;;;;;;6.12;100.00;98888.14;1726542;83;21670;-88
2022/09/28 00:29:01;;;;;;;5.42;3.52;;;;;;;6.11;100.00;98886.47;1715412;83;20993;-84
2022/09/28 00:31:32;;;;;;;6.83;2.90;;;;;;;6.07;100.00;98887.48;1718485;83;21001;-87
2022/09/28 00:34:03;;;;;;;6.90;3.67;;;;;;;6.02;99.95;98885.95;1726503;82;22135;-84
2022/09/28 00:36:31;;;;;;;;;;;;;;;5.96;99.71;98882.31;1729133;83;21007;-87
2022/09/28 00:39:00;;;;;;;4.67;2.73;;;;;;;5.90;99.38;98882.52;1726485;83;20182;-86
2022/09/28 00:41:28;;;;;;;6.80;3.63;;;;;;;5.81;99.21;98878.55;1726375;82;21487;-87
2022/09/28 00:44:47;;;;;;;5.40;3.47;;;;;;;5.74;99.00;98877.13;1726727;83;21522;-87
2022/09/28 00:47:44;;;;;;;5.40;3.30;;;;;;;5.71;99.17;98878.56;1726439;83;21113;-87
2022/09/28 00:50:25;;;;;;;8.70;3.50;;;;;;;5.66;99.43;98883.56;1726590;82;21477;-88
2022/09/28 00:53:16;;;;;;;8.50;4.50;;;;;;;5.62;99.81;98878.92;1726349;83;21020;-88
2022/09/28 00:56:00;;;;;;;6.05;4.20;;;;;;;5.68;100.00;98878.70;1726551;82;21035;-88
2022/09/28 00:58:31;;;;;;;7.20;4.67;;;;;;;5.79;100.00;98869.99;1726742;82;20988;-86
2022/09/28 01:00:59;;;;;;;8.63;4.73;;;;;;;5.87;100.00;98872.24;1726663;83;21144;-86
2022/09/28 01:03:28;;;;;;;9.90;4.17;;;;;;;5.96;100.00;98870.61;1726309;82;21549;-86
2022/09/28 01:05:59;;;;;;;7.13;4.30;;;;;;;6.05;100.00;98872.43;1729763;82;21019;-85
2022/09/28 01:08:28;;;;;;;9.07;4.07;;;;;;;6.10;100.00;98871.78;1731811;82;21019;-86
2022/09/28 01:11:00;;;;;;;6.28;3.92;;;;;;;6.09;100.00;98870.91;1731953;82;21019;-86
2022/09/28 01:13:30;;;;;;;6.43;3.43;;;;;;;6.10;100.00;98872.62;1731826;82;21127;-87
2022/09/28 01:16:17;;;;;;;8.55;3.55;;;;;;;6.06;100.00;98872.80;1732198;82;20985;-86
2022/09/28 01:19:03;;;;;;;4.70;3.33;;;;;;;6.02;100.00;98871.64;1731766;82;21011;-86
2022/09/28 01:21:37;;;;;;;6.20;3.47;;;;;;;5.98;100.00;98871.36;1732912;82;21024;-86
2022/09/28 01:24:31;;;;;;;5.17;3.27;;;;;;;5.95;100.00;98868.90;1730605;82;21004;-82
2022/09/28 01:27:17;;;;;;;4.63;3.23;;;;;;;5.90;100.00;98863.02;1689767;84;21215;-82
2022/09/28 01:29:59;;;;;;;4.30;3.13;;;;;;;5.87;100.00;98860.55;1711022;82;21080;-83
2022/09/28 01:32:54;;;;;;;7.00;3.60;;;;;;;5.85;100.00;98858.48;1731599;82;21067;-84
2022/09/28 01:35:38;;;;;;;7.13;4.10;;;;;;;5.87;100.00;98869.64;1731784;82;20996;-85
2022/09/28 01:38:35;;;;;;;8.20;3.93;;;;;;;5.88;100.00;98854.91;1732036;82;20988;-86
2022/09/28 01:41:04;;;;;;;6.90;3.80;;;;;;;5.86;100.00;98859.33;1718720;83;21191;-86
2022/09/28 01:43:37;;;;;;;5.43;3.63;;;;;;;5.86;100.00;98858.87;1718960;83;21003;-86
2022/09/28 01:46:19;;;;;;;6.17;3.90;;;;;;;5.85;100.00;98853.72;1697749;83;21436;-86
2022/09/28 01:48:55;;;;;;;5.47;3.73;;;;;;;5.85;100.00;98859.78;1727943;82;21043;-85
2022/09/28 01:51:39;;;;;;;6.60;3.73;;;;;;;5.81;100.00;98849.11;1732081;82;21019;-85
2022/09/28 01:54:13;;;;;;;5.97;3.83;;;;;;;5.86;100.00;98847.16;1731712;82;21204;-84
2022/09/28 01:56:50;;;;;;;7.73;3.97;;;;;;;5.89;100.00;98849.63;1731961;82;21012;-86
2022/09/28 01:59:23;;;;;;;8.03;4.57;;;;;;;5.89;100.00;98850.09;1637308;86;21118;-84
2022/09/28 02:02:19;;;;;;;9.00;4.13;;;;;;;5.88;100.00;98847.11;1711443;82;21024;-88
2022/09/28 02:04:57;;;;;;;6.73;3.90;;;;;;;5.86;100.00;98847.63;1731558;82;21012;-88
2022/09/28 02:07:29;;;;;;;6.40;4.07;;;;;;;5.87;100.00;98842.34;1710215;82;21881;-88
2022/09/28 02:10:06;;;;;;;7.03;4.80;;;;;;;5.88;100.00;98841.45;1731551;82;21004;-87
2022/09/28 02:12:38;;;;;;;7.30;4.50;;;;;;;5.91;100.00;98850.87;1731782;82;21040;-88
2022/09/28 02:15:28;;;;;;;6.57;4.40;;;;;;;5.89;100.00;98843.59;1731654;82;21059;-86
2022/09/28 02:17:55;;;;;;;6.40;4.30;;;;;;;5.94;100.00;98844.28;1731850;82;20980;-88
2022/09/28 02:20:23;;;;;;;8.70;5.10;;;;;;;5.94;100.00;98844.28;1732085;82;21174;-88
2022/09/28 02:22:56;;;;;;;7.23;5.10;;;;;;;5.97;100.00;98845.44;1731678;82;21501;-87
2022/09/28 02:25:41;;;;;;;8.80;5.47;;;;;;;5.99;100.00;98849.67;1732126;82;21015;-88
2022/09/28 02:28:16;;;;;;;9.73;5.37;;;;;;;6.02;100.00;98845.63;1730564;82;21000;-84
2022/09/28 02:30:43;;;;;;;8.17;5.00;;;;;;;6.02;100.00;98846.09;1717521;82;21024;-88
2022/09/28 02:33:26;;;;;;;8.48;5.20;;;;;;;6.00;100.00;98847.91;1731847;82;21125;-88
2022/09/28 02:35:54;;;;;;;7.70;5.23;;;;;;;5.98;100.00;98845.36;1702318;82;20908;-87
2022/09/28 02:38:22;;;;;;;9.53;5.97;;;;;;;5.97;100.00;98841.08;1712821;82;21054;-87
2022/09/28 02:41:03;;;;;;;9.27;5.63;;;;;;;5.96;100.00;98843.30;1719776;82;21121;-87
2022/09/28 02:43:51;;;;;;;8.20;5.12;;;;;;;5.99;100.00;98837.97;1731728;82;21091;-86
2022/09/28 02:46:35;;;;;;;12.43;6.23;;;;;;;5.99;100.00;98837.97;1695839;82;21133;-82
2022/09/28 02:49:19;;;;;;;9.63;5.60;;;;;;;6.03;100.00;98840.80;1714729;82;21027;-86
2022/09/28 02:52:06;;;;;;;7.83;5.53;;;;;;;6.13;100.00;98839.12;1731313;82;21506;-87
2022/09/28 02:54:57;;;;;;;8.97;5.20;;;;;;;6.19;100.00;98832.34;1731273;82;21558;-83
2022/09/28 02:57:41;;;;;;;7.87;5.37;;;;;;;6.25;100.00;98832.91;1731555;82;21027;-81
2022/09/28 03:00:19;;;;;;;8.97;4.93;;;;;;;6.30;100.00;98835.31;1731706;82;21142;-82
2022/09/28 03:03:19;;;;;;;6.83;4.70;;;;;;;6.35;100.00;98839.02;1731988;82;21115;-85
2022/09/28 03:05:59;;;;;;;6.70;4.70;;;;;;;6.41;100.00;98838.28;1731379;82;21023;-87
2022/09/28 03:08:42;;;;;;;8.70;4.57;;;;;;;6.49;100.00;98837.94;1731323;82;21759;-87
2022/09/28 03:11:19;;;;;;;7.67;4.50;;;;;;;6.56;100.00;98832.83;1731847;81;21510;-86
2022/09/28 03:13:48;;;;;;;7.17;4.20;;;;;;;6.61;100.00;98835.23;1732053;82;21171;-86
2022/09/28 03:16:19;;;;;;;6.83;4.67;;;;;;;6.65;100.00;98838.06;1731650;82;20996;-84
2022/09/28 03:18:47;;;;;;;7.37;4.30;;;;;;;6.67;100.00;98831.03;1732020;82;21008;-88
2022/09/28 03:21:15;;;;;;;8.00;4.50;;;;;;;6.72;100.00;98833.44;1731691;82;21004;-86
2022/09/28 03:23:42;;;;;;;8.07;3.77;;;;;;;6.74;100.00;98833.75;1731967;81;21393;-77
2022/09/28 03:26:11;;;;;;;6.97;4.20;;;;;;;6.76;100.00;98830.62;1731656;82;21354;-87
2022/09/28 03:28:39;;;;;;;8.80;4.40;;;;;;;6.79;100.00;98828.31;1731979;82;21513;-83
2022/09/28 03:31:07;;;;;;;6.80;4.10;;;;;;;6.84;100.00;98823.27;1731723;82;21055;-88
2022/09/28 03:33:35;;;;;;;6.00;4.17;;;;;;;6.87;100.00;98823.16;1732114;82;21047;-80
2022/09/28 03:36:01;;;;;;;6.20;3.93;;;;;;;6.88;100.00;98822.23;1731669;82;21562;-88
2022/09/28 03:38:29;;;;;;;6.13;4.37;;;;;;;6.91;100.00;98821.24;1719148;82;21140;-87
2022/09/28 03:40:59;;;;;;;7.83;3.67;;;;;;;6.90;100.00;98820.41;1724290;82;21039;-83
2022/09/28 03:43:29;;;;;;;5.93;4.00;;;;;;;6.89;100.00;98826.51;1732066;81;21301;-82
2022/09/28 03:46:00;;;;;;;5.58;3.62;;;;;;;6.86;100.00;98826.66;1715020;82;21004;-87
2022/09/28 03:48:34;;;;;;;5.72;3.70;;;;;;;6.84;100.00;98821.97;1731888;82;20996;-83
2022/09/28 03:51:05;;;;;;;5.03;3.57;;;;;;;6.80;100.00;98826.95;1731685;82;21984;-85
2022/09/28 03:53:33;;;;;;;4.37;3.33;;;;;;;6.76;100.00;98826.72;1712290;82;21040;-83
2022/09/28 03:56:11;;;;;;;7.10;3.67;;;;;;;6.69;100.00;98831.81;1731667;81;21029;-87
2022/09/28 03:58:39;;;;;;;4.50;3.20;;;;;;;6.62;100.00;98831.27;1702558;82;21489;-81
2022/09/28 04:01:17;;;;;;;4.97;3.13;;;;;;;6.56;100.00;98826.31;1705112;82;21023;-86
2022/09/28 04:03:46;;;;;;;7.33;3.90;;;;;;;6.52;100.00;98825.25;1712201;82;21050;-86
2022/09/28 04:06:14;;;;;;;4.90;3.40;;;;;;;6.48;100.00;98826.69;1730394;82;20997;-87
2022/09/28 04:08:42;;;;;;;5.93;3.50;;;;;;;6.44;100.00;98825.13;1726294;82;21008;-88
2022/09/28 04:11:09;;;;;;;5.47;3.57;;;;;;;6.41;100.00;98830.47;1726478;83;21443;-87
2022/09/28 04:13:36;;;;;;;7.13;3.70;;;;;;;6.39;100.00;98820.58;1726245;82;21505;-85
2022/09/28 04:16:05;;;;;;;6.13;3.60;;;;;;;6.40;100.00;98821.42;1726484;82;21076;-83
2022/09/28 04:18:34;;;;;;;5.53;3.47;;;;;;;6.39;100.00;98828.84;1726187;83;21521;-84
2022/09/28 04:21:14;;;;;;;5.33;3.73;;;;;;;6.32;100.00;98821.79;1695846;82;21613;-87
2022/09/28 04:23:43;;;;;;;5.00;3.47;;;;;;;6.28;100.00;98821.52;1726196;82;21490;-88
2022/09/28 04:26:18;;;;;;;6.07;3.70;;;;;;;6.25;100.00;98821.20;1726751;83;21024;-87
2022/09/28 04:31:37;;;;;;;5.73;3.67;;;;;;;6.27;100.00;98819.84;1716061;83;21048;-85
2022/09/28 04:34:05;;;;;;;7.70;4.30;;;;;;;6.25;100.00;98817.76;1726449;83;21021;-86
2022/09/28 04:36:34;;;;;;;15.67;8.33;;;;;;;6.26;100.00;98824.64;1726439;82;21016;-85
2022/09/28 04:39:01;;;;;;;19.60;10.30;;;;;;;6.26;100.00;98825.94;1707313;82;20997;-87
2022/09/28 04:41:28;;;;;;;13.57;6.73;;;;;;;6.26;100.00;98822.03;1725594;81;21105;-87
2022/09/28 04:43:56;;;;;;;8.13;4.60;;;;;;;6.26;100.00;98824.64;1726246;83;21011;-85
2022/09/28 04:46:25;;;;;;;7.30;4.70;;;;;;;6.27;100.00;98827.65;1726363;82;21447;-86
2022/09/28 04:49:10;;;;;;;7.20;4.30;;;;;;;6.27;100.00;98825.05;1666038;86;21051;-86
2022/09/28 04:51:45;;;;;;;7.27;3.53;;;;;;;6.23;100.00;98820.41;1696613;82;20993;-86
2022/09/28 04:54:12;;;;;;;5.87;4.07;;;;;;;6.20;100.00;98813.21;1726307;82;21079;-84
2022/09/28 04:56:40;;;;;;;6.17;4.13;;;;;;;6.22;100.00;98812.69;1726650;83;21538;-85
2022/09/28 04:59:07;;;;;;;6.03;3.80;;;;;;;6.19;100.00;98811.53;1726353;83;21031;-86
2022/09/28 05:01:36;;;;;;;7.30;4.03;;;;;;;6.18;100.00;98815.03;1726550;83;21573;-87
2022/09/28 05:04:22;;;;;;;33.33;13.20;;;;;;;6.14;100.00;98810.89;1726458;83;21004;-87
2022/09/28 05:07:08;;;;;;;9.80;4.93;;;;;;;6.14;100.00;98813.48;1709430;82;21121;-85
2022/09/28 05:09:37;;;;;;;11.00;4.73;;;;;;;6.10;100.00;98815.86;1731960;82;21059;-87
2022/09/28 05:12:05;;;;;;;13.33;6.73;;;;;;;6.03;100.00;98821.30;1732122;82;21008;-86
2022/09/28 05:14:32;;;;;;;52.63;25.73;;;;;;;5.98;100.00;98828.91;1731842;82;21028;-87
2022/09/28 05:16:59;;;;;;;19.37;10.03;;;;;;;5.97;100.00;98823.34;1731836;82;21004;-87
2022/09/28 05:19:26;;;;;;;45.37;23.80;;;;;;;5.95;100.00;98832.48;1731806;82;21122;-85
2022/09/28 05:21:56;;;;;;;22.63;12.23;;;;;;;5.94;100.00;98825.61;1731652;82;21478;-82
2022/09/28 05:24:24;;;;;;;7.13;4.87;;;;;;;5.94;100.00;98825.61;1731853;82;21024;-87
2022/09/28 05:26:52;;;;;;;5.97;4.20;;;;;;;5.90;100.00;98820.10;1732037;81;21267;-87
2022/09/28 05:29:19;;;;;;;22.53;11.20;;;;;;;5.88;100.00;98823.25;1731759;82;21000;-87
2022/09/28 05:32:05;;;;;;;120.23;71.40;;;;;;;5.86;100.00;98817.72;1731733;81;21293;-87
2022/09/28 05:34:37;;;;;;;46.37;29.07;;;;;;;5.87;100.00;98818.94;1731257;82;21469;-86
2022/09/28 05:37:04;;;;;;;18.57;12.53;;;;;;;5.91;100.00;98819.21;1731819;81;21031;-84
2022/09/28 05:39:32;;;;;;;12.07;7.57;;;;;;;5.92;100.00;98816.99;1711309;82;21559;-87
2022/09/28 05:41:58;;;;;;;19.13;13.77;;;;;;;5.95;100.00;98812.98;1731798;81;21059;-81
2022/09/28 05:44:25;;;;;;;57.23;35.17;;;;;;;5.96;100.00;98809.49;1731872;82;21243;-85
2022/09/28 05:46:54;;;;;;;70.73;42.87;;;;;;;5.95;100.00;98801.74;1731780;82;21015;-85
2022/09/28 05:49:21;;;;;;;55.87;36.13;;;;;;;5.98;100.00;98798.55;1731569;81;21060;-87
2022/09/28 05:51:48;;;;;;;113.20;60.90;;;;;;;6.01;100.00;98797.14;1731635;82;21504;-81
2022/09/28 05:54:15;;;;;;;97.07;58.30;;;;;;;6.07;100.00;98799.92;1731708;82;21015;-75
2022/09/28 05:56:44;;;;;;;88.60;57.77;;;;;;;6.11;100.00;98797.56;1719061;81;21248;-80
2022/09/28 05:59:12;;;;;;;59.53;40.70;;;;;;;6.16;100.00;98793.46;1705285;82;21078;-85
2022/09/28 06:01:39;;;;;;;32.73;20.77;;;;;;;6.18;100.00;98799.42;1686866;82;21036;-86
2022/09/28 06:04:08;;;;;;;12.53;8.27;;;;;;;6.20;100.00;98797.14;1700011;82;21055;-82
2022/09/28 06:06:37;;;;;;;9.87;6.50;;;;;;;6.24;100.00;98800.00;1708121;82;21122;-80
2022/09/28 06:09:04;;;;;;;9.63;5.80;;;;;;;6.32;100.00;98803.58;1703424;82;21125;-84
2022/09/28 06:11:36;;;;;;;12.73;7.13;;;;;;;6.41;100.00;98806.21;1699715;82;21043;-88
2022/09/28 06:14:04;;;;;;;31.50;14.20;;;;;;;6.46;100.00;98799.05;1711714;82;20947;-79
2022/09/28 06:16:33;;;;;;;61.77;25.27;;;;;;;6.54;100.00;98811.25;1712775;81;21564;-77
2022/09/28 06:19:01;;;;;;;15.20;9.20;;;;;;;6.65;100.00;98806.82;1717957;82;21043;-82
2022/09/28 06:21:47;;;;;;;9.33;6.10;;;;;;;6.75;100.00;98802.05;1704242;82;22014;-78
2022/09/28 06:24:14;;;;;;;7.33;4.80;;;;;;;6.91;100.00;98806.45;1723692;82;22031;-78
2022/09/28 06:26:41;;;;;;;6.83;4.80;;;;;;;7.08;100.00;98813.92;1716512;82;21058;-83
2022/09/28 06:29:08;;;;;;;7.17;5.13;;;;;;;7.21;100.00;98813.72;1716202;82;21052;-83
2022/09/28 06:31:36;;;;;;;7.43;5.00;;;;;;;7.30;100.00;98814.56;1715419;82;21094;-82
2022/09/28 06:34:03;;;;;;;7.70;5.23;;;;;;;7.41;100.00;98821.03;1709737;81;21994;-87
2022/09/28 06:36:30;;;;;;;9.03;5.87;;;;;;;7.45;100.00;98820.78;1720628;82;21127;-85
2022/09/28 06:38:58;;;;;;;7.23;5.43;;;;;;;7.50;100.00;98822.70;1713321;82;21020;-81
2022/09/28 06:41:25;;;;;;;7.37;5.13;;;;;;;7.53;100.00;98810.81;1711042;82;21043;-82
2022/09/28 06:43:52;;;;;;;9.03;5.43;;;;;;;7.57;100.00;98808.45;1709861;82;21110;-81
2022/09/28 06:46:38;;;;;;;7.87;5.20;;;;;;;7.65;100.00;98807.20;1700293;82;21157;-80
2022/09/28 06:49:09;;;;;;;7.57;4.70;;;;;;;7.72;100.00;98812.04;1701868;82;21024;-84
2022/09/28 06:51:47;;;;;;;8.40;5.93;;;;;;;7.77;100.00;98803.99;1659438;84;21043;-82
2022/09/28 06:54:24;;;;;;;8.80;5.73;;;;;;;7.83;100.00;98804.51;1720681;81;21023;-86
2022/09/28 06:57:02;;;;;;;7.97;5.80;;;;;;;7.89;100.00;98793.38;1690791;83;21052;-86
2022/09/28 06:59:30;;;;;;;10.90;7.07;;;;;;;7.99;100.00;98790.22;1708967;82;21083;-83
2022/09/28 07:01:58;;;;;;;45.37;29.60;;;;;;;8.10;100.00;98796.66;1711931;82;21008;-84
2022/09/28 07:04:44;;;;;;;46.27;28.30;;;;;;;8.17;100.00;98786.25;1712089;82;21734;-80
2022/09/28 07:07:13;;;;;;;42.87;26.07;;;;;;;8.25;100.00;98782.31;1715492;82;20959;-81
2022/09/28 07:09:49;;;;;;;9.47;6.90;;;;;;;8.35;100.00;98768.78;1693255;82;21043;-85
2022/09/28 07:12:24;;;;;;;14.23;8.00;;;;;;;8.42;100.00;98767.07;1708574;82;22430;-82
2022/09/28 07:14:56;;;;;;;7.47;5.30;;;;;;;8.47;100.00;98759.00;1717203;82;21509;-86
2022/09/28 07:17:23;;;;;;;8.23;5.33;;;;;;;8.54;100.00;98753.84;1716070;82;21071;-82
2022/09/28 07:19:56;;;;;;;6.00;4.80;;;;;;;8.61;100.00;98759.55;1714455;82;20996;-86
2022/09/28 07:22:23;;;;;;;6.27;4.80;;;;;;;8.68;100.00;98762.22;1713694;82;21043;-86
2022/09/28 07:24:51;;;;;;;8.40;5.90;;;;;;;8.71;100.00;98759.43;1714974;82;21866;-84
2022/09/28 07:27:36;;;;;;;6.40;4.47;;;;;;;8.74;100.00;98755.34;1715711;82;21035;-87
2022/09/28 07:30:18;;;;;;;15.57;8.90;;;;;;;8.80;100.00;98754.98;1716667;82;21456;-82
2022/09/28 07:32:47;;;;;;;8.20;6.28;;;;;;;8.87;100.00;98758.12;1709967;82;21039;-86
2022/09/28 07:35:16;;;;;;;9.30;5.70;;;;;;;8.95;100.00;98755.88;1715682;82;21039;-77
2022/09/28 07:37:45;;;;;;;12.67;9.07;;;;;;;8.99;100.00;98760.02;1709304;82;21119;-83
2022/09/28 07:43:06;;;;;;;14.13;9.67;;;;;;;9.05;100.00;98764.06;1731549;82;21267;-83
2022/09/28 07:45:35;;;;;;;10.80;8.13;;;;;;;9.08;100.00;98760.80;1732109;82;21083;-85
2022/09/28 07:48:02;;;;;;;9.57;6.80;;;;;;;9.16;100.00;98762.51;1731835;82;21039;-87
2022/09/28 07:50:53;;;;;;;7.50;6.20;;;;;;;9.24;100.00;98759.46;1651214;82;21125;-84
2022/09/28 07:53:29;;;;;;;12.10;8.27;;;;;;;9.28;100.00;98759.64;1676883;82;21036;-82
2022/09/28 07:56:05;;;;;;;9.10;7.33;;;;;;;9.34;100.00;98760.63;1728690;82;21035;-82
2022/09/28 07:58:42;;;;;;;7.07;5.73;;;;;;;9.40;100.00;98760.73;1729919;82;21031;-83
2022/09/28 08:01:18;;;;;;;6.60;5.53;;;;;;;9.46;100.00;98760.84;1664107;82;21057;-84
2022/09/28 08:03:46;;;;;;;6.87;5.00;;;;;;;9.54;100.00;98756.83;1732151;82;21176;-82
2022/09/28 08:06:16;;;;;;;8.27;5.27;;;;;;;9.64;100.00;98753.19;1732106;82;21028;-80
2022/09/28 08:08:44;;;;;;;9.30;6.95;;;;;;;9.71;100.00;98750.59;1723454;82;28222;-85
2022/09/28 08:11:16;;;;;;;7.03;5.20;;;;;;;9.83;100.00;98749.84;1729088;82;21025;-82
2022/09/28 08:13:46;;;;;;;6.23;4.53;;;;;;;9.96;100.00;98759.12;1707629;82;21095;-84
2022/09/28 08:16:21;;;;;;;6.35;5.22;;;;;;;10.10;100.00;98741.73;1716076;82;21127;-83
2022/09/28 08:18:53;;;;;;;12.00;7.12;;;;;;;10.29;100.00;98744.09;1707565;81;21047;-81
2022/09/28 08:24:07;;;;;;;10.15;6.22;;;;;;;10.64;100.00;98740.09;1729058;82;21063;-82
2022/09/28 08:26:34;;;;;;;5.60;4.30;;;;;;;10.80;100.00;98740.41;1728900;82;21047;-82
2022/09/28 08:29:02;;;;;;;5.80;4.75;;;;;;;10.93;100.00;98747.38;1729371;82;21777;-81
2022/09/28 08:31:34;;;;;;;5.90;4.17;;;;;;;11.01;100.00;98739.02;1652506;82;21031;-80
2022/09/28 08:34:09;;;;;;;4.90;4.03;;;;;;;11.16;100.00;98738.48;1727728;82;21036;-83
2022/09/28 08:36:44;;;;;;;4.30;3.47;;;;;;;11.27;99.99;98741.70;1665083;82;22079;-81
2022/09/28 08:39:33;;;;;;;6.78;4.10;;;;;;;11.39;99.61;98743.53;1628255;87;21325;-82
2022/09/28 08:42:34;;;;;;;;;;;;;;;11.56;99.49;98744.55;1629815;86;21214;-82
2022/09/28 08:45:29;;;;;;;4.47;3.50;;;;;;;11.64;98.48;98736.16;1683592;82;20178;-83
2022/09/28 08:51:46;;;;;;;4.95;3.22;;;;;;;11.81;97.76;98739.77;1731508;82;25593;-82
2022/09/28 08:54:50;;;;;;;6.65;3.20;;;;;;;11.97;98.09;98734.34;1730782;82;21044;-84
2022/09/28 08:57:43;;;;;;;4.72;3.30;;;;;;;12.16;97.64;98731.73;1730245;82;21154;-84
2022/09/28 09:00:22;;;;;;;2.85;2.30;;;;;;;12.35;97.07;98737.37;1703842;81;21000;-83
2022/09/28 09:02:49;;;;;;;2.42;1.90;;;;;;;12.65;96.97;98735.66;1731588;82;21537;-83
2022/09/28 09:05:21;;;;;;;3.83;1.98;;;;;;;12.89;96.48;98723.01;1731596;81;21027;-80
2022/09/28 09:08:25;;;;;;;6.45;3.30;;;;;;;13.09;95.48;98715.79;1729198;81;21548;-80
2022/09/28 09:11:14;;;;;;;1.10;1.00;;;;;;;13.32;95.23;98718.05;1710854;83;21028;-81
2022/09/28 09:13:56;;;;;;;2.65;1.02;;;;;;;13.65;93.90;98715.61;1725666;82;20992;-84
2022/09/28 09:17:04;;;;;;;2.05;0.80;;;;;;;13.80;92.56;98715.28;1726276;83;21000;-83
2022/09/28 09:19:47;;;;;;;1.60;0.80;;;;;;;13.80;90.72;98715.28;1720253;83;21080;-83
2022/09/28 09:22:59;;;;;;;1.82;0.93;;;;;;;13.81;90.28;98709.05;1706495;83;21557;-83
2022/09/28 09:25:47;;;;;;;1.45;1.20;;;;;;;13.95;90.67;98715.88;1726296;83;21111;-84
2022/09/28 09:28:37;;;;;;;1.92;1.37;;;;;;;14.13;89.86;98718.02;1726196;83;21096;-84
2022/09/28 09:31:44;;;;;;;3.12;1.30;;;;;;;14.18;89.19;98718.50;1715702;83;21043;-85
2022/09/28 09:34:52;;;;;;;9.65;4.35;;;;;;;14.19;88.11;98717.08;1724381;82;21055;-84
2022/09/28 09:38:01;;;;;;;1.52;1.30;;;;;;;14.31;87.56;98719.22;1724226;83;20989;-85
2022/09/28 09:41:14;;;;;;;1.92;1.32;;;;;;;14.48;87.93;98712.12;1712548;83;21955;-84
2022/09/28 09:44:27;;;;;;;10.48;2.50;;;;;;;14.53;87.00;98712.28;1723470;83;21485;-85
2022/09/28 09:47:07;;;;;;;2.12;1.37;;;;;;;14.53;86.34;98710.47;1723700;82;21008;-83
2022/09/28 09:49:41;;;;;;;2.35;1.60;;;;;;;14.49;85.95;98705.91;1725270;82;21017;-84
2022/09/28 09:52:34;;;;;;;9.28;2.90;;;;;;;14.48;85.29;98700.73;1725269;82;21571;-85
2022/09/28 09:55:42;;;;;;;2.95;2.05;;;;;;;14.45;85.19;98697.03;1726006;82;21473;-85
2022/09/28 09:58:30;;;;;;;5.60;1.77;;;;;;;14.47;85.10;98699.08;1724689;82;21579;-83
2022/09/28 10:01:09;;;;;;;5.28;2.10;;;;;;;14.49;85.10;98696.67;1725694;82;20989;-83
2022/09/28 10:03:47;;;;;;;5.92;4.30;;;;;;;14.45;84.55;98695.23;1691093;82;21457;-85
2022/09/28 10:06:22;;;;;;;5.47;2.50;;;;;;;14.23;84.13;98696.59;1726134;82;21019;-82
2022/09/28 10:09:05;;;;;;;21.12;5.12;;;;;;;14.15;84.10;98703.77;1728724;82;21414;-83
2022/09/28 10:11:40;;;;;;;6.97;3.40;;;;;;;14.15;84.10;98703.77;1739126;82;21032;-84
2022/09/28 10:14:13;;;;;;;2.80;1.92;;;;;;;14.10;84.44;98687.48;1732002;82;21023;-84
2022/09/28 10:16:46;;;;;;;2.72;1.70;;;;;;;14.05;84.33;98692.30;1729207;81;21019;-83
2022/09/28 10:19:19;;;;;;;5.42;3.37;;;;;;;13.91;84.03;98692.06;1731558;82;20992;-82
2022/09/28 10:22:06;;;;;;;4.25;1.82;;;;;;;13.91;84.03;98692.06;1731850;82;21155;-79
2022/09/28 10:24:40;;;;;;;;;;;;;;;13.86;84.10;98698.66;1734552;82;21076;-81
2022/09/28 10:27:17;;;;;;;3.25;1.62;;;;;;;13.83;83.60;98693.14;1731815;82;20094;-81
2022/09/28 10:29:58;;;;;;;2.00;1.52;;;;;;;13.75;83.41;98698.16;1732057;82;21004;-83
2022/09/28 10:32:39;;;;;;;6.78;3.25;;;;;;;13.61;82.82;98693.47;1731622;82;21639;-82
2022/09/28 10:35:24;;;;;;;7.50;3.00;;;;;;;13.55;82.94;98693.95;1732126;82;22186;-82
2022/09/28 10:38:03;;;;;;;2.12;1.32;;;;;;;13.51;82.93;98695.13;1725816;82;21508;-82
2022/09/28 10:40:53;;;;;;;1.85;1.50;;;;;;;13.48;82.98;98696.67;1722333;82;21070;-81
2022/09/28 10:43:34;;;;;;;5.95;3.00;;;;;;;13.42;82.72;98691.89;1731316;82;21008;-81
2022/09/28 10:46:17;;;;;;;5.62;2.55;;;;;;;13.35;82.68;98690.17;1731628;82;21456;-86
2022/09/28 10:49:00;;;;;;;6.40;2.65;;;;;;;13.28;82.87;98688.15;1731513;82;21156;-81
2022/09/28 10:51:48;;;;;;;3.67;1.98;;;;;;;13.22;82.98;98689.87;1731177;82;21055;-85
2022/09/28 10:54:22;;;;;;;7.70;4.03;;;;;;;13.12;83.01;98685.79;1731416;82;20999;-76
2022/09/28 10:56:54;;;;;;;3.55;2.12;;;;;;;13.14;83.86;98697.05;1731432;82;21071;-77
